Weather at Vilkaviškis Airfield

Public forecast

Using degrees Celsius for public forecast. Weather courtesy of forecast.io.

Closest aviation weather report (METAR) to Vilkaviškis Airfield

Closest report is Kaunas International Airport, 41.0 nm (75.9 km) ENE.

2024/06/19 06:20 (retrieved 17 minutes ago)

EYKA 190620Z 18009KT 160V220 9999 -SHRA VCTS BKN069CB 17/16 Q1010

Closest aviation forecast (TAF) to Vilkaviškis Airfield

Closest forecast is Kaunas International Airport, 41.0 nm (75.9 km) ENE.

2024/06/19 06:06 (retrieved 31 minutes ago)

TAF TAF EYKA 190503Z 1906/2006 18010KT 9000 BKN040 TEMPO 1906/1910 VRB20G36KT 1500 TSRA SCT005 BKN030CB TEMPO 1910/1916 VRB20G36KT 1500 TSRA BKN005 BKN020CB BECMG 1916/1918 30010KT TEMPO 1922/2003 3000 SHRA SCT005 BKN030CB